createdAt,value
2019-04-16T00:02:10.392Z,13.20
2019-04-16T00:05:05.020Z,13.00
2019-04-16T00:07:53.608Z,13.30
2019-04-16T00:10:29.665Z,12.90
2019-04-16T00:13:13.235Z,13.20
2019-04-16T00:15:42.835Z,13.40
2019-04-16T00:18:12.664Z,13.20
2019-04-16T00:21:01.481Z,13.10
2019-04-16T00:23:46.943Z,13.20
2019-04-16T00:26:16.528Z,13.40
2019-04-16T00:28:46.185Z,13.40
2019-04-16T00:31:15.818Z,13.20
2019-04-16T00:33:45.430Z,13.40
2019-04-16T00:36:15.312Z,13.60
2019-04-16T00:38:46.534Z,13.20
2019-04-16T00:41:16.162Z,13.40
2019-04-16T00:43:46.018Z,12.50
2019-04-16T00:46:16.135Z,13.00
2019-04-16T00:48:45.837Z,12.60
2019-04-16T00:51:15.783Z,13.30
2019-04-16T00:53:45.479Z,13.10
2019-04-16T00:56:16.190Z,13.30
2019-04-16T00:58:46.440Z,13.00
2019-04-16T01:01:16.438Z,12.90
2019-04-16T01:03:46.028Z,13.20
2019-04-16T01:06:15.763Z,13.00
2019-04-16T01:08:54.502Z,12.90
2019-04-16T01:11:16.582Z,13.00
2019-04-16T01:13:46.198Z,13.50
2019-04-16T01:16:16.099Z,13.00
2019-04-16T01:18:45.649Z,13.00
2019-04-16T01:21:15.266Z,13.00
2019-04-16T01:23:48.391Z,12.60
2019-04-16T01:26:16.332Z,13.40
2019-04-16T01:29:05.070Z,13.40
2019-04-16T01:31:53.625Z,13.10
2019-04-16T01:34:47.073Z,13.60
2019-04-16T01:37:36.962Z,13.50
2019-04-16T01:40:07.427Z,13.90
2019-04-16T01:42:37.284Z,13.30
2019-04-16T01:45:07.254Z,13.50
2019-04-16T01:47:37.351Z,13.50
2019-04-16T01:50:12.652Z,14.40
2019-04-16T01:52:39.200Z,13.80
2019-04-16T01:55:08.938Z,13.60
2019-04-16T01:57:38.544Z,14.50
2019-04-16T02:00:08.847Z,14.50
2019-04-16T02:02:38.487Z,14.40
2019-04-16T02:05:08.294Z,13.70
2019-04-16T02:07:37.856Z,14.70
2019-04-16T02:10:08.121Z,14.70
2019-04-16T02:12:37.774Z,14.90
2019-04-16T02:15:09.337Z,14.20
2019-04-16T02:17:38.909Z,15.20
2019-04-16T02:20:08.834Z,14.60
2019-04-16T02:22:38.406Z,14.40
2019-04-16T02:25:08.511Z,15.00
2019-04-16T02:27:38.088Z,15.20
2019-04-16T02:30:07.862Z,15.20
2019-04-16T02:32:37.413Z,15.40
2019-04-16T02:35:07.366Z,15.00
2019-04-16T02:37:37.621Z,15.20
2019-04-16T02:40:07.792Z,15.40
2019-04-16T02:42:37.611Z,15.40
2019-04-16T02:45:08.147Z,15.40
2019-04-16T02:47:41.838Z,15.20
2019-04-16T02:50:12.728Z,15.40
2019-04-16T02:52:53.511Z,15.40
2019-04-16T02:55:43.928Z,15.40
2019-04-16T02:58:15.116Z,15.60
2019-04-16T03:01:12.837Z,15.40
2019-04-16T03:03:49.709Z,14.90
2019-04-16T03:06:19.311Z,15.40
2019-04-16T03:08:49.128Z,15.40
2019-04-16T03:11:18.703Z,15.20
2019-04-16T03:13:48.278Z,15.30
2019-04-16T03:16:40.170Z,15.30
2019-04-16T03:19:18.855Z,15.20
2019-04-16T03:21:47.345Z,15.70
2019-04-16T03:24:16.916Z,14.90
2019-04-16T03:26:47.658Z,15.80
2019-04-16T03:29:17.693Z,15.80
2019-04-16T03:31:47.275Z,15.60
2019-04-16T03:34:19.105Z,14.80
2019-04-16T03:36:48.296Z,15.50
2019-04-16T03:39:17.910Z,14.90
2019-04-16T03:41:48.880Z,16.10
2019-04-16T03:44:18.447Z,16.00
2019-04-16T03:46:48.340Z,16.00
2019-04-16T03:49:17.905Z,16.00
2019-04-16T03:51:47.796Z,15.50
2019-04-16T03:54:18.813Z,16.00
2019-04-16T03:56:48.664Z,16.10
2019-04-16T03:59:18.298Z,16.10
2019-04-16T04:01:47.865Z,15.80
2019-04-16T04:04:17.676Z,15.80
2019-04-16T04:06:47.245Z,16.10
2019-04-16T04:09:18.956Z,16.20
2019-04-16T04:11:48.059Z,16.00
2019-04-16T04:14:22.367Z,16.00
2019-04-16T04:16:48.833Z,16.10
2019-04-16T04:19:18.430Z,16.40
2019-04-16T04:21:50.602Z,16.40
2019-04-16T04:24:19.215Z,16.50
2019-04-16T04:26:48.839Z,16.70
2019-04-16T04:29:20.701Z,17.00
2019-04-16T04:31:49.947Z,15.80
2019-04-16T04:34:19.554Z,16.70
2019-04-16T04:36:49.161Z,16.30
2019-04-16T04:39:18.782Z,16.50
2019-04-16T04:41:48.613Z,16.70
2019-04-16T04:44:18.499Z,16.30
2019-04-16T04:46:48.051Z,16.60
2019-04-16T04:49:17.709Z,16.30
2019-04-16T04:51:47.296Z,16.30
2019-04-16T04:54:21.644Z,16.30
2019-04-16T04:56:48.151Z,16.40
2019-04-16T04:59:17.757Z,16.30
2019-04-16T05:01:47.590Z,16.20
2019-04-16T05:04:34.784Z,16.10
2019-04-16T05:07:06.409Z,16.10
2019-04-16T05:09:36.860Z,16.00
2019-04-16T05:12:08.303Z,16.10
2019-04-16T05:14:40.970Z,16.10
2019-04-16T05:17:10.511Z,15.50
2019-04-16T05:19:40.147Z,15.90
2019-04-16T05:22:09.889Z,15.80
2019-04-16T05:24:39.462Z,16.10
2019-04-16T05:27:09.464Z,15.70
2019-04-16T05:29:39.392Z,15.30
2019-04-16T05:32:09.268Z,16.10
2019-04-16T05:34:38.844Z,15.90
2019-04-16T05:37:08.551Z,15.70
2019-04-16T05:39:38.146Z,15.30
2019-04-16T05:42:07.792Z,15.50
2019-04-16T05:44:37.322Z,15.50
2019-04-16T05:47:07.263Z,15.30
2019-04-16T05:49:37.105Z,15.00
2019-04-16T05:52:06.717Z,14.50
2019-04-16T05:54:53.543Z,13.60
2019-04-16T05:57:27.474Z,13.50
2019-04-16T05:59:57.240Z,13.40
2019-04-16T06:02:36.108Z,13.10
2019-04-16T06:05:06.365Z,12.80
2019-04-16T06:07:38.099Z,12.30
2019-04-16T06:10:07.778Z,12.40
2019-04-16T06:12:50.044Z,12.40
2019-04-16T06:15:38.540Z,12.30
2019-04-16T06:18:19.901Z,12.30
2019-04-16T06:20:59.814Z,12.60
2019-04-16T06:24:03.075Z,12.30
2019-04-16T06:26:49.042Z,11.80
2019-04-16T06:29:34.609Z,12.20
2019-04-16T06:32:16.756Z,12.00
2019-04-16T06:35:09.858Z,11.60
2019-04-16T06:37:51.991Z,11.80
2019-04-16T06:40:47.634Z,11.10
2019-04-16T06:43:26.280Z,11.20
2019-04-16T06:46:16.527Z,10.40
2019-04-16T06:49:03.674Z,10.50
2019-04-16T06:51:59.757Z,10.30
2019-04-16T06:54:41.260Z,11.30
2019-04-16T06:57:27.400Z,10.40
2019-04-16T07:00:14.641Z,9.80
2019-04-16T07:03:02.550Z,9.80
2019-04-16T07:05:47.403Z,9.60
2019-04-16T07:08:36.913Z,10.00
2019-04-16T07:10:59.190Z,9.60
2019-04-16T07:13:28.828Z,9.70
2019-04-16T07:15:58.916Z,9.80
2019-04-16T07:18:28.878Z,9.80
2019-04-16T07:20:58.760Z,10.00
2019-04-16T07:23:28.423Z,9.90
2019-04-16T07:25:58.060Z,9.70
2019-04-16T07:28:33.098Z,9.90
2019-04-16T07:31:36.729Z,9.40
2019-04-16T07:34:25.507Z,9.20
2019-04-16T07:37:07.980Z,9.00
2019-04-16T07:40:09.008Z,8.90
2019-04-16T07:42:52.425Z,8.30
2019-04-16T07:45:43.435Z,8.40
2019-04-16T07:48:32.876Z,8.60
2019-04-16T07:51:26.364Z,8.70
2019-04-16T07:54:13.429Z,7.70
2019-04-16T07:56:45.673Z,7.70
2019-04-16T07:59:15.317Z,8.10
2019-04-16T08:01:47.820Z,8.20
2019-04-16T08:04:25.506Z,8.30
2019-04-16T08:06:47.662Z,8.60
2019-04-16T08:09:17.527Z,8.40
2019-04-16T08:11:47.362Z,8.40
2019-04-16T08:14:17.240Z,8.50
2019-04-16T08:16:48.039Z,7.80
2019-04-16T08:19:17.848Z,8.40
2019-04-16T08:21:47.412Z,8.10
2019-04-16T08:24:25.537Z,8.20
2019-04-16T08:26:55.067Z,7.30
2019-04-16T08:29:26.461Z,7.80
2019-04-16T08:31:56.163Z,9.00
2019-04-16T08:34:25.835Z,8.40
2019-04-16T08:36:55.655Z,7.50
2019-04-16T08:39:25.578Z,8.30
2019-04-16T08:41:55.115Z,7.50
2019-04-16T08:44:24.790Z,8.10
2019-04-16T08:46:54.373Z,7.60
2019-04-16T08:49:23.968Z,8.20
2019-04-16T08:51:53.488Z,7.70
2019-04-16T08:54:23.101Z,7.00
2019-04-16T08:56:52.970Z,7.60
2019-04-16T08:59:22.570Z,7.10
2019-04-16T09:01:54.380Z,7.20
2019-04-16T09:04:23.689Z,6.80
2019-04-16T09:06:53.265Z,6.20
2019-04-16T09:09:33.055Z,6.40
2019-04-16T09:12:08.936Z,5.90
2019-04-16T09:14:40.766Z,6.30
2019-04-16T09:17:13.043Z,5.80
2019-04-16T09:19:45.912Z,6.10
2019-04-16T09:22:16.941Z,5.70
2019-04-16T09:24:54.538Z,6.00
2019-04-16T09:27:34.150Z,5.50
2019-04-16T09:30:18.584Z,6.20
2019-04-16T09:33:00.399Z,5.70
2019-04-16T09:35:34.696Z,6.30
2019-04-16T09:38:23.329Z,5.90
2019-04-16T09:41:20.976Z,6.20
2019-04-16T09:43:57.035Z,6.60
2019-04-16T09:46:48.863Z,6.30
2019-04-16T09:48:56.567Z,5.90
2019-04-16T09:51:26.473Z,5.80
2019-04-16T09:53:59.167Z,6.30
2019-04-16T09:56:30.228Z,5.70
2019-04-16T09:59:26.500Z,5.70
2019-04-16T10:02:20.791Z,5.10
2019-04-16T10:04:50.384Z,5.20
2019-04-16T10:07:20.277Z,5.90
2019-04-16T10:09:51.443Z,5.90
2019-04-16T10:12:21.187Z,6.00
2019-04-16T10:14:51.028Z,5.70
2019-04-16T10:17:20.824Z,5.50
2019-04-16T10:19:50.504Z,5.10
2019-04-16T10:22:20.461Z,4.90
2019-04-16T10:25:07.333Z,5.10
2019-04-16T10:27:39.019Z,5.00
2019-04-16T10:30:19.522Z,4.90
2019-04-16T10:32:49.462Z,4.10
2019-04-16T10:35:19.059Z,4.70
2019-04-16T10:37:48.683Z,3.80
2019-04-16T10:40:43.589Z,4.40
2019-04-16T10:43:43.626Z,4.70
2019-04-16T10:46:14.213Z,3.90
2019-04-16T10:48:59.401Z,3.80
2019-04-16T10:51:46.594Z,4.20
2019-04-16T10:54:24.598Z,3.70
2019-04-16T10:57:11.801Z,4.10
2019-04-16T10:59:50.633Z,4.30
2019-04-16T11:02:33.419Z,4.50
2019-04-16T11:05:11.372Z,5.00
2019-04-16T11:07:41.206Z,4.60
2019-04-16T11:10:11.906Z,4.30
2019-04-16T11:12:41.865Z,4.20
2019-04-16T11:15:13.375Z,4.00
2019-04-16T11:17:42.972Z,3.60
2019-04-16T11:20:12.851Z,3.60
2019-04-16T11:22:42.592Z,4.10
2019-04-16T11:25:12.608Z,3.50
2019-04-16T11:27:42.137Z,3.90
2019-04-16T11:30:24.142Z,4.10
2019-04-16T11:32:53.749Z,3.50
2019-04-16T11:35:23.409Z,3.10
2019-04-16T11:37:53.040Z,3.10
2019-04-16T11:40:22.606Z,3.10
2019-04-16T11:42:52.161Z,4.10
2019-04-16T11:45:21.744Z,3.50
2019-04-16T11:47:51.348Z,2.90
2019-04-16T11:50:21.165Z,2.90
2019-04-16T11:52:50.730Z,3.40
2019-04-16T11:55:20.301Z,3.30
2019-04-16T11:57:50.441Z,2.70
2019-04-16T12:00:41.857Z,2.80
2019-04-16T12:03:25.537Z,2.80
2019-04-16T12:06:27.077Z,3.50
2019-04-16T12:08:53.887Z,2.60
2019-04-16T12:11:28.489Z,2.30
2019-04-16T12:14:10.008Z,2.30
2019-04-16T12:16:58.788Z,2.50
2019-04-16T12:19:45.667Z,3.10
2019-04-16T12:22:24.968Z,3.90
2019-04-16T12:25:16.204Z,3.20
2019-04-16T12:28:08.287Z,2.70
2019-04-16T12:30:58.882Z,2.30
2019-04-16T12:33:34.871Z,2.40
2019-04-16T12:36:14.544Z,2.90
2019-04-16T12:38:51.265Z,1.80
2019-04-16T12:41:33.212Z,2.10
2019-04-16T12:44:24.164Z,3.00
2019-04-16T12:47:09.191Z,1.70
2019-04-16T12:50:01.490Z,2.30
2019-04-16T12:52:37.416Z,2.50
2019-04-16T12:55:25.219Z,2.00
2019-04-16T12:58:04.578Z,2.30
2019-04-16T13:00:44.039Z,1.60
2019-04-16T13:03:38.282Z,2.00
2019-04-16T13:06:27.112Z,2.00
2019-04-16T13:09:14.273Z,1.80
2019-04-16T13:12:09.493Z,2.00
2019-04-16T13:15:02.220Z,1.90
2019-04-16T13:17:50.972Z,1.60
2019-04-16T13:20:44.047Z,1.70
2019-04-16T13:23:21.233Z,1.30
2019-04-16T13:26:00.022Z,1.00
2019-04-16T13:28:30.877Z,1.20
2019-04-16T13:31:00.511Z,2.10
2019-04-16T13:33:30.059Z,1.00
2019-04-16T13:35:59.869Z,1.00
2019-04-16T13:38:30.568Z,1.20
2019-04-16T13:41:02.207Z,1.10
2019-04-16T13:43:37.587Z,1.60
2019-04-16T13:46:07.280Z,1.30
2019-04-16T13:49:14.088Z,1.20
2019-04-16T13:51:45.099Z,1.00
2019-04-16T13:54:27.603Z,1.00
2019-04-16T13:56:58.291Z,1.50
2019-04-16T13:59:49.832Z,1.00
2019-04-16T14:02:33.705Z,1.00
2019-04-16T14:05:05.135Z,1.00
2019-04-16T14:07:34.770Z,1.00
2019-04-16T14:10:04.698Z,1.00
2019-04-16T14:12:42.250Z,1.00
2019-04-16T14:15:06.992Z,1.00
2019-04-16T14:17:51.725Z,1.00
2019-04-16T14:20:12.117Z,1.00
2019-04-16T14:22:39.976Z,1.00
2019-04-16T14:25:10.139Z,1.00
2019-04-16T14:27:39.704Z,1.00
2019-04-16T14:30:14.935Z,1.00
2019-04-16T14:32:44.875Z,1.00
2019-04-16T14:35:32.040Z,1.00
2019-04-16T14:37:48.260Z,1.00
2019-04-16T14:40:22.690Z,1.00
2019-04-16T14:42:57.330Z,1.00
2019-04-16T14:45:57.542Z,1.00
2019-04-16T14:48:16.953Z,1.00
2019-04-16T14:50:46.803Z,1.00
2019-04-16T14:53:34.003Z,1.00
2019-04-16T14:56:09.506Z,1.00
2019-04-16T14:58:55.541Z,1.00
2019-04-16T15:01:53.151Z,1.00
2019-04-16T15:04:40.082Z,1.00
2019-04-16T15:07:31.541Z,1.00
2019-04-16T15:10:20.310Z,1.00
2019-04-16T15:13:07.416Z,1.00
2019-04-16T15:15:47.274Z,1.00
2019-04-16T15:18:34.443Z,1.00
2019-04-16T15:21:12.538Z,1.00
2019-04-16T15:24:07.004Z,1.00
2019-04-16T15:26:53.360Z,1.00
2019-04-16T15:29:30.322Z,1.00
2019-04-16T15:32:16.180Z,1.00
2019-04-16T15:34:47.365Z,1.00
2019-04-16T15:37:50.747Z,1.00
2019-04-16T15:40:40.295Z,1.00
2019-04-16T15:43:27.386Z,1.00
2019-04-16T15:46:26.083Z,1.00
2019-04-16T15:48:56.046Z,1.00
2019-04-16T15:51:56.468Z,1.00
2019-04-16T15:54:33.480Z,1.00
2019-04-16T15:57:20.270Z,1.00
2019-04-16T16:00:12.196Z,1.00
2019-04-16T16:03:10.211Z,1.00
2019-04-16T16:05:47.356Z,1.00
2019-04-16T16:08:26.941Z,1.00
2019-04-16T16:11:00.515Z,1.00
2019-04-16T16:13:30.074Z,1.00
2019-04-16T16:15:59.799Z,1.00
2019-04-16T16:18:29.341Z,1.00
2019-04-16T16:20:59.172Z,1.00
2019-04-16T16:23:33.036Z,1.00
2019-04-16T16:26:00.419Z,1.00
2019-04-16T16:28:29.973Z,1.00
2019-04-16T16:30:59.804Z,1.00
2019-04-16T16:33:29.369Z,1.00
2019-04-16T16:36:00.212Z,1.00
2019-04-16T16:38:30.277Z,1.00
2019-04-16T16:40:59.897Z,1.00
2019-04-16T16:43:29.872Z,1.00
2019-04-16T16:46:21.279Z,1.00
2019-04-16T16:48:51.843Z,1.00
2019-04-16T16:51:23.205Z,1.00
2019-04-16T16:54:04.848Z,1.00
2019-04-16T16:57:07.539Z,1.00
2019-04-16T16:59:56.207Z,1.00
2019-04-16T17:02:36.689Z,1.00
2019-04-16T17:05:08.623Z,1.00
2019-04-16T17:07:38.522Z,1.00
2019-04-16T17:10:08.848Z,1.00
2019-04-16T17:12:39.010Z,1.00
2019-04-16T17:15:09.618Z,1.00
2019-04-16T17:17:39.590Z,1.00
2019-04-16T17:20:09.255Z,1.00
2019-04-16T17:22:40.700Z,1.00
2019-04-16T17:25:11.703Z,1.00
2019-04-16T17:27:51.269Z,1.00
2019-04-16T17:30:13.599Z,1.00
2019-04-16T17:32:43.186Z,1.00
2019-04-16T17:35:15.458Z,1.00
2019-04-16T17:37:43.935Z,1.00
2019-04-16T17:40:26.821Z,1.00
2019-04-16T17:43:00.117Z,1.00
2019-04-16T17:45:57.432Z,1.00
2019-04-16T17:49:01.151Z,1.00
2019-04-16T17:51:53.459Z,1.00
2019-04-16T17:54:45.267Z,1.00
2019-04-16T17:57:32.121Z,1.00
2019-04-16T18:00:17.761Z,1.00
2019-04-16T18:03:21.698Z,1.00
2019-04-16T18:06:08.667Z,1.20
2019-04-16T18:08:59.907Z,1.50
2019-04-16T18:11:51.164Z,2.30
2019-04-16T18:14:48.501Z,2.60
2019-04-16T18:17:46.839Z,3.50
2019-04-16T18:20:28.553Z,3.80
2019-04-16T18:23:06.979Z,4.00
2019-04-16T18:25:58.515Z,3.90
2019-04-16T18:28:31.883Z,4.20
2019-04-16T18:31:06.836Z,4.70
2019-04-16T18:33:41.011Z,4.50
2019-04-16T18:36:32.315Z,5.00
2019-04-16T18:39:19.512Z,5.30
2019-04-16T18:41:59.619Z,5.20
2019-04-16T18:44:56.163Z,5.40
2019-04-16T18:48:03.035Z,5.70
2019-04-16T18:50:28.289Z,6.10
2019-04-16T18:52:58.122Z,6.30
2019-04-16T18:55:28.023Z,6.20
2019-04-16T18:57:57.997Z,6.50
2019-04-16T19:00:33.564Z,6.50
2019-04-16T19:03:03.477Z,6.40
2019-04-16T19:05:33.286Z,6.90
2019-04-16T19:08:03.236Z,6.70
2019-04-16T19:10:32.847Z,7.10
2019-04-16T19:13:05.479Z,7.00
2019-04-16T19:15:33.706Z,7.30
2019-04-16T19:18:18.470Z,7.50
2019-04-16T19:20:34.754Z,7.80
2019-04-16T19:23:04.431Z,7.80
2019-04-16T19:25:33.996Z,8.10
2019-04-16T19:28:06.005Z,7.50
2019-04-16T19:30:34.878Z,7.50
2019-04-16T19:33:04.784Z,7.70
2019-04-16T19:35:34.330Z,8.40
2019-04-16T19:38:06.217Z,8.50
2019-04-16T19:40:35.376Z,8.50
2019-04-16T19:43:04.972Z,7.90
2019-04-16T19:45:34.567Z,8.00
2019-04-16T19:48:04.137Z,8.70
2019-04-16T19:50:36.513Z,8.00
2019-04-16T19:53:05.013Z,8.50
2019-04-16T19:55:34.882Z,8.60
2019-04-16T19:58:04.948Z,8.70
2019-04-16T20:00:34.560Z,8.50
2019-04-16T20:03:04.503Z,8.50
2019-04-16T20:05:34.341Z,8.50
2019-04-16T20:08:03.921Z,8.50
2019-04-16T20:10:33.488Z,8.40
2019-04-16T20:13:03.135Z,7.80
2019-04-16T20:15:32.988Z,7.80
2019-04-16T20:18:06.014Z,7.70
2019-04-16T20:20:33.847Z,8.00
2019-04-16T20:23:03.707Z,8.50
2019-04-16T20:25:33.566Z,7.90
2019-04-16T20:28:03.144Z,8.60
2019-04-16T20:30:32.805Z,8.60
2019-04-16T20:33:02.646Z,8.70
2019-04-16T20:35:32.494Z,8.80
2019-04-16T20:38:02.483Z,8.90
2019-04-16T20:40:32.324Z,8.20
2019-04-16T20:43:02.160Z,8.50
2019-04-16T20:45:31.708Z,9.00
2019-04-16T20:48:01.333Z,9.00
2019-04-16T20:50:30.923Z,8.50
2019-04-16T20:53:06.163Z,9.10
2019-04-16T20:55:32.273Z,9.00
2019-04-16T20:58:01.929Z,9.00
2019-04-16T21:00:33.129Z,9.10
2019-04-16T21:03:03.718Z,8.60
2019-04-16T21:05:35.810Z,8.50
2019-04-16T21:08:04.882Z,9.00
2019-04-16T21:10:35.696Z,9.20
2019-04-16T21:13:06.029Z,9.10
2019-04-16T21:15:47.040Z,9.10
2019-04-16T21:18:16.656Z,9.10
2019-04-16T21:20:50.896Z,9.00
2019-04-16T21:23:17.449Z,9.20
2019-04-16T21:25:47.234Z,9.10
2019-04-16T21:28:30.552Z,9.20
2019-04-16T21:31:04.543Z,9.00
2019-04-16T21:33:42.428Z,9.30
2019-04-16T21:36:17.787Z,9.00
2019-04-16T21:39:06.568Z,8.50
2019-04-16T21:41:36.400Z,9.10
2019-04-16T21:44:12.141Z,8.70
2019-04-16T21:46:37.293Z,9.10
2019-04-16T21:49:08.715Z,9.20
2019-04-16T21:51:40.457Z,8.50
2019-04-16T21:54:10.313Z,9.10
2019-04-16T21:56:40.361Z,9.00
2019-04-16T21:59:09.943Z,9.10
2019-04-16T22:01:43.911Z,9.00
2019-04-16T22:04:15.986Z,9.20
2019-04-16T22:06:45.790Z,9.00
2019-04-16T22:09:15.535Z,9.10
2019-04-16T22:11:45.111Z,8.70
2019-04-16T22:14:14.653Z,8.90
2019-04-16T22:16:44.533Z,9.20
2019-04-16T22:19:14.937Z,8.50
2019-04-16T22:21:45.510Z,8.50
2019-04-16T22:24:15.059Z,8.50
2019-04-16T22:26:44.904Z,8.60
2019-04-16T22:29:15.662Z,8.90
2019-04-16T22:31:45.742Z,9.10
2019-04-16T22:34:15.285Z,9.10
2019-04-16T22:36:45.205Z,8.60
2019-04-16T22:39:32.301Z,8.40
2019-04-16T22:42:26.383Z,9.30
2019-04-16T22:45:25.600Z,9.10
2019-04-16T22:47:56.324Z,9.30
2019-04-16T22:50:25.829Z,9.10
2019-04-16T22:52:55.506Z,9.20
2019-04-16T22:55:25.786Z,8.80
2019-04-16T22:57:56.453Z,9.30
2019-04-16T23:00:45.539Z,9.30
2019-04-16T23:03:16.569Z,8.70
2019-04-16T23:05:46.335Z,9.30
2019-04-16T23:08:15.919Z,9.20
2019-04-16T23:10:45.524Z,9.20
2019-04-16T23:13:15.368Z,9.30
2019-04-16T23:15:45.185Z,8.70
2019-04-16T23:18:17.378Z,9.20
2019-04-16T23:20:45.982Z,9.20
2019-04-16T23:23:18.472Z,9.20
2019-04-16T23:25:47.303Z,9.40
2019-04-16T23:28:16.841Z,8.80
2019-04-16T23:30:47.936Z,8.80
2019-04-16T23:33:17.867Z,9.30
2019-04-16T23:35:47.746Z,9.30
2019-04-16T23:38:17.562Z,9.30
2019-04-16T23:40:47.387Z,9.30
2019-04-16T23:43:38.678Z,8.80
2019-04-16T23:46:25.481Z,9.40
2019-04-16T23:49:20.053Z,9.00
2019-04-16T23:52:01.566Z,9.40
2019-04-16T23:54:46.339Z,9.40
2019-04-16T23:57:24.935Z,9.40
